Time;durP1;ratioP1;P1;durP2;ratioP2;P2;SDS_P1;SDS_P2;PMS_P1;PMS_P2;Temp;Humidity;BMP_temperature;BMP_pressure;BME280_temperature;BME280_humidity;BME280_pressure;Samples;Min_cycle;Max_cycle;Signal;HPM_P1;HPM_P2
2023/06/08 00:00:11;;;;;;;9.10;8.20;;;;;;;15.55;79.65;97162.67;105323;1266;96709;-72
2023/06/08 00:03:04;;;;;;;12.90;8.30;;;;;;;15.54;79.70;97163.02;105286;1253;96998;-72
2023/06/08 00:05:43;;;;;;;11.00;8.30;;;;;;;15.53;79.84;97163.49;104907;1262;103872;-72
2023/06/08 00:08:12;;;;;;;9.00;8.00;;;;;;;15.52;79.81;97168.91;105307;1258;101686;-73
2023/06/08 00:10:44;;;;;;;9.00;8.10;;;;;;;15.51;79.75;97170.70;105116;1255;100499;-72
2023/06/08 00:13:13;;;;;;;10.60;8.60;;;;;;;15.50;79.81;97170.95;105036;1259;96811;-72
2023/06/08 00:15:41;;;;;;;9.70;7.70;;;;;;;15.49;79.92;97170.05;105295;1256;97351;-71
2023/06/08 00:18:10;;;;;;;9.00;8.10;;;;;;;15.47;79.88;97166.16;105229;1255;101902;-72
2023/06/08 00:20:39;;;;;;;13.40;8.60;;;;;;;15.46;79.93;97166.48;105076;1272;101650;-74
2023/06/08 00:23:07;;;;;;;11.00;8.70;;;;;;;15.46;80.06;97165.88;105127;1255;100434;-72
2023/06/08 00:25:35;;;;;;;11.50;8.80;;;;;;;15.46;80.04;97170.06;104992;1256;96557;-72
2023/06/08 00:28:03;;;;;;;10.00;8.90;;;;;;;15.47;80.10;97171.98;104923;1260;97033;-74
2023/06/08 00:30:31;;;;;;;13.10;9.30;;;;;;;15.48;80.14;97171.30;104960;1255;101116;-73
2023/06/08 00:32:59;;;;;;;10.70;8.20;;;;;;;15.48;80.21;97172.88;105021;1252;101832;-72
2023/06/08 00:35:27;;;;;;;10.50;9.10;;;;;;;15.46;80.39;97175.20;104970;1253;100424;-74
2023/06/08 00:37:56;;;;;;;10.70;9.00;;;;;;;15.42;80.33;97174.55;105020;1253;97456;-72
2023/06/08 00:40:24;;;;;;;11.20;9.30;;;;;;;15.43;80.62;97174.07;105032;1275;96975;-73
2023/06/08 00:42:52;;;;;;;11.00;9.90;;;;;;;15.44;80.67;97173.92;104981;1255;102689;-72
2023/06/08 00:45:20;;;;;;;14.70;10.90;;;;;;;15.45;80.87;97172.20;104983;1255;101757;-72
2023/06/08 00:47:48;;;;;;;10.70;9.00;;;;;;;15.43;80.96;97170.26;104875;1257;98445;-71
2023/06/08 00:50:16;;;;;;;11.40;9.20;;;;;;;15.42;80.89;97171.21;105292;1255;97155;-72
2023/06/08 00:52:45;;;;;;;11.00;9.00;;;;;;;15.44;80.83;97172.72;104998;1260;97481;-72
2023/06/08 00:55:13;;;;;;;12.50;9.90;;;;;;;15.45;81.10;97172.84;105039;1256;102659;-74
2023/06/08 00:57:47;;;;;;;12.40;10.30;;;;;;;15.44;81.17;97166.64;105074;1255;101895;-73
2023/06/08 01:00:16;;;;;;;13.70;11.00;;;;;;;15.43;81.18;97165.63;105227;1255;100187;-74
2023/06/08 01:02:45;;;;;;;13.20;11.20;;;;;;;15.43;81.28;97165.58;104924;1260;96737;-73
2023/06/08 01:05:16;;;;;;;12.40;10.70;;;;;;;15.45;81.38;97166.15;105086;1254;97556;-74
2023/06/08 01:08:10;;;;;;;13.60;11.30;;;;;;;15.47;81.39;97164.27;104969;1253;102538;-72
2023/06/08 01:10:53;;;;;;;14.10;11.10;;;;;;;15.49;81.55;97167.52;105053;1255;101923;-71
2023/06/08 01:14:05;;;;;;;12.30;11.10;;;;;;;15.49;81.56;97169.25;104985;1275;100317;-72
2023/06/08 01:16:38;;;;;;;11.60;10.10;;;;;;;15.48;81.58;97165.64;104349;1265;96664;-71
2023/06/08 01:19:10;;;;;;;12.80;11.20;;;;;;;15.47;81.70;97160.13;104398;1265;98136;-72
2023/06/08 01:21:57;;;;;;;14.30;11.30;;;;;;;15.46;81.85;97156.56;104510;1273;103061;-73
2023/06/08 01:24:30;;;;;;;14.20;11.60;;;;;;;15.45;82.00;97160.28;104420;1265;101690;-73
2023/06/08 01:27:01;;;;;;;13.50;10.80;;;;;;;15.46;81.95;97162.30;104292;1267;100437;-74
2023/06/08 01:29:33;;;;;;;12.60;10.60;;;;;;;15.49;81.86;97161.19;104416;1265;96559;-72
2023/06/08 01:32:01;;;;;;;12.80;11.40;;;;;;;15.50;81.92;97159.70;104449;1278;96763;-74
2023/06/08 01:34:30;;;;;;;13.30;11.10;;;;;;;15.52;81.76;97157.91;104405;1265;101258;-72
2023/06/08 01:36:58;;;;;;;13.60;11.00;;;;;;;15.53;81.92;97156.14;104414;1265;101816;-71
2023/06/08 01:39:48;;;;;;;11.30;10.20;;;;;;;15.54;81.89;97154.86;104441;1265;100356;-72
2023/06/08 01:42:20;;;;;;;14.90;11.40;;;;;;;15.53;82.02;97155.48;104509;1263;96645;-73
2023/06/08 01:45:00;;;;;;;13.30;10.30;;;;;;;15.52;82.06;97152.64;104453;1283;97763;-72
2023/06/08 01:47:52;;;;;;;14.60;11.30;;;;;;;15.51;82.16;97155.20;104438;1265;101245;-72
2023/06/08 01:50:22;;;;;;;12.00;10.40;;;;;;;15.51;82.18;97152.70;104439;1262;101902;-72
2023/06/08 01:52:50;;;;;;;14.40;11.40;;;;;;;15.53;82.12;97154.67;104500;1261;100133;-72
2023/06/08 01:55:20;;;;;;;11.00;9.70;;;;;;;15.54;82.10;97155.58;104948;1257;96601;-72
2023/06/08 01:57:49;;;;;;;11.10;9.90;;;;;;;15.54;82.15;97159.16;104989;1255;97151;-72
2023/06/08 02:00:20;;;;;;;11.50;9.90;;;;;;;15.52;82.18;97165.27;105040;1255;102505;-72
2023/06/08 02:02:48;;;;;;;16.00;10.80;;;;;;;15.53;82.27;97165.40;104974;1256;101928;-72
2023/06/08 02:05:18;;;;;;;14.60;11.20;;;;;;;15.55;82.34;97164.05;105184;1255;100457;-75
2023/06/08 02:07:46;;;;;;;13.10;11.10;;;;;;;15.58;82.37;97163.70;104864;1271;97492;-72
2023/06/08 02:10:16;;;;;;;15.40;13.20;;;;;;;15.58;82.35;97164.25;104961;1264;97007;-72
2023/06/08 02:12:44;;;;;;;16.00;12.40;;;;;;;15.58;82.45;97160.88;105007;1255;102492;-74
2023/06/08 02:15:13;;;;;;;16.20;12.70;;;;;;;15.58;82.58;97161.15;105320;1255;102003;-72
2023/06/08 02:17:41;;;;;;;13.10;11.60;;;;;;;15.58;82.68;97163.92;105004;1256;100342;-72
2023/06/08 02:20:09;;;;;;;13.90;11.70;;;;;;;15.59;82.66;97168.71;104985;1256;96762;-72
2023/06/08 02:22:40;;;;;;;15.20;13.20;;;;;;;15.59;82.63;97166.98;104995;1256;97144;-72
2023/06/08 02:25:09;;;;;;;13.30;11.30;;;;;;;15.60;82.71;97161.87;105105;1256;102984;-72
2023/06/08 02:27:37;;;;;;;14.50;11.50;;;;;;;15.59;82.76;97158.65;105062;1256;101693;-71
2023/06/08 02:30:09;;;;;;;12.70;10.80;;;;;;;15.57;82.79;97157.71;104983;1257;100538;-73
2023/06/08 02:32:37;;;;;;;12.50;10.30;;;;;;;15.55;82.67;97158.66;105017;1256;96549;-72
2023/06/08 02:35:06;;;;;;;14.20;11.70;;;;;;;15.55;82.74;97158.45;105066;1259;97188;-74
2023/06/08 02:37:35;;;;;;;15.00;12.30;;;;;;;15.57;82.75;97156.95;104920;1270;102715;-72
2023/06/08 02:40:04;;;;;;;16.00;12.40;;;;;;;15.58;82.75;97154.57;104804;1268;101820;-72
2023/06/08 02:42:32;;;;;;;11.90;10.50;;;;;;;15.57;82.71;97152.33;105002;1257;100432;-72
2023/06/08 02:45:00;;;;;;;14.10;10.30;;;;;;;15.55;82.72;97152.75;105090;1258;96746;-72
2023/06/08 02:47:28;;;;;;;13.50;11.10;;;;;;;15.50;82.70;97157.14;105121;1253;98058;-71
2023/06/08 02:49:56;;;;;;;14.60;12.70;;;;;;;15.48;82.65;97164.02;105171;1256;102661;-72
2023/06/08 02:52:24;;;;;;;14.30;11.80;;;;;;;15.49;82.82;97168.09;105080;1268;102178;-72
2023/06/08 02:54:52;;;;;;;14.10;10.90;;;;;;;15.49;82.85;97167.50;105203;1255;100166;-70
2023/06/08 02:57:21;;;;;;;15.90;12.70;;;;;;;15.47;82.65;97166.65;104934;1253;97076;-71
2023/06/08 02:59:49;;;;;;;15.80;12.00;;;;;;;15.44;82.70;97168.36;104987;1255;97062;-72
2023/06/08 03:02:17;;;;;;;17.20;13.20;;;;;;;15.41;82.71;97169.89;104975;1255;102612;-72
2023/06/08 03:04:45;;;;;;;19.30;13.20;;;;;;;15.39;82.93;97171.81;105024;1266;101874;-72
2023/06/08 03:07:15;;;;;;;17.40;13.80;;;;;;;15.40;83.11;97172.71;104932;1260;98880;-74
2023/06/08 03:09:43;;;;;;;17.60;13.60;;;;;;;15.41;83.15;97173.91;105288;1255;97491;-71
2023/06/08 03:12:13;;;;;;;17.30;13.40;;;;;;;15.42;83.20;97175.35;105292;1253;98441;-72
2023/06/08 03:14:41;;;;;;;18.40;13.50;;;;;;;15.45;83.17;97177.46;105255;1255;102684;-75
2023/06/08 03:17:10;;;;;;;19.00;13.80;;;;;;;15.47;83.27;97178.84;105134;1275;101770;-73
2023/06/08 03:19:38;;;;;;;16.90;13.40;;;;;;;15.47;83.19;97180.42;105174;1255;100657;-71
2023/06/08 03:22:07;;;;;;;16.70;13.10;;;;;;;15.46;83.20;97178.99;105269;1263;96591;-72
2023/06/08 03:24:35;;;;;;;15.40;12.50;;;;;;;15.47;83.29;97178.40;105040;1255;96979;-72
2023/06/08 03:27:05;;;;;;;15.20;11.90;;;;;;;15.47;83.37;97173.73;105198;1272;102731;-72
2023/06/08 03:29:34;;;;;;;15.40;11.50;;;;;;;15.49;83.58;97175.88;105346;1256;101988;-73
2023/06/08 03:32:02;;;;;;;15.60;11.40;;;;;;;15.50;83.63;97174.72;105043;1253;99482;-73
2023/06/08 03:34:30;;;;;;;12.90;10.90;;;;;;;15.53;83.51;97169.27;104911;1267;96661;-73
2023/06/08 03:36:58;;;;;;;14.10;11.60;;;;;;;15.56;83.49;97166.25;105058;1255;97167;-73
2023/06/08 03:39:27;;;;;;;14.60;11.40;;;;;;;15.59;83.59;97165.29;104985;1256;102787;-73
2023/06/08 03:41:55;;;;;;;14.10;12.00;;;;;;;15.61;83.47;97162.60;104960;1267;101931;-74
2023/06/08 03:44:23;;;;;;;15.90;11.40;;;;;;;15.63;83.61;97160.58;104954;1259;100842;-72
2023/06/08 03:46:52;;;;;;;13.30;11.80;;;;;;;15.65;83.61;97162.51;104958;1253;97170;-74
2023/06/08 03:49:20;;;;;;;14.40;10.40;;;;;;;15.65;83.60;97160.23;104923;1259;97263;-75
2023/06/08 03:51:48;;;;;;;15.30;10.90;;;;;;;15.66;83.47;97158.29;105245;1256;103351;-72
2023/06/08 03:54:17;;;;;;;13.40;11.10;;;;;;;15.67;83.57;97159.73;105028;1267;101869;-74
2023/06/08 03:56:45;;;;;;;13.60;11.50;;;;;;;15.66;83.65;97159.75;105041;1253;100701;-72
2023/06/08 03:59:13;;;;;;;13.00;10.70;;;;;;;15.66;83.58;97159.86;105217;1266;96550;-73
2023/06/08 04:01:41;;;;;;;14.00;10.90;;;;;;;15.69;83.59;97161.98;105216;1253;97064;-73
2023/06/08 04:04:10;;;;;;;12.20;10.80;;;;;;;15.71;83.53;97162.31;104921;1258;102677;-73
2023/06/08 04:06:38;;;;;;;14.70;12.10;;;;;;;15.73;83.37;97159.56;105033;1256;101868;-73
2023/06/08 04:09:06;;;;;;;14.50;11.50;;;;;;;15.74;83.38;97160.95;105193;1253;100486;-73
2023/06/08 04:11:35;;;;;;;14.20;10.50;;;;;;;15.77;83.34;97158.71;105028;1260;96566;-73
2023/06/08 04:14:03;;;;;;;17.40;11.40;;;;;;;15.79;83.12;97157.23;105304;1259;97207;-72
2023/06/08 04:16:31;;;;;;;11.60;10.30;;;;;;;15.82;83.28;97159.31;105301;1253;102649;-71
2023/06/08 04:18:59;;;;;;;14.30;11.30;;;;;;;15.84;83.30;97157.50;105123;1254;101858;-72
2023/06/08 04:21:28;;;;;;;12.60;10.80;;;;;;;15.86;83.24;97159.38;105000;1255;100237;-74
2023/06/08 04:23:56;;;;;;;11.50;10.20;;;;;;;15.88;83.26;97160.51;105014;1258;96812;-71
2023/06/08 04:26:24;;;;;;;11.20;9.70;;;;;;;15.90;83.30;97162.76;104884;1260;97120;-74
2023/06/08 04:28:52;;;;;;;12.30;9.90;;;;;;;15.91;83.21;97160.33;104987;1266;102705;-72
2023/06/08 04:31:20;;;;;;;13.50;9.80;;;;;;;15.92;83.11;97163.25;105012;1255;101996;-72
2023/06/08 04:33:48;;;;;;;12.40;10.20;;;;;;;15.91;83.07;97165.34;105044;1255;100310;-72
2023/06/08 04:36:17;;;;;;;13.40;9.90;;;;;;;15.88;83.04;97166.33;104962;1266;96569;-72
2023/06/08 04:38:45;;;;;;;11.40;9.40;;;;;;;15.88;83.09;97169.21;105003;1266;97069;-73
2023/06/08 04:41:14;;;;;;;10.30;9.00;;;;;;;15.89;83.07;97168.68;104948;1257;102349;-74
2023/06/08 04:43:44;;;;;;;11.00;9.80;;;;;;;15.91;83.03;97165.78;104996;1256;101940;-71
2023/06/08 04:46:12;;;;;;;10.20;9.10;;;;;;;15.93;83.13;97166.61;104980;1255;100441;-71
2023/06/08 04:48:43;;;;;;;10.50;9.10;;;;;;;15.96;83.12;97166.54;104981;1258;97303;-71
2023/06/08 04:51:11;;;;;;;10.10;8.80;;;;;;;15.99;83.05;97169.31;104987;1256;96956;-72
2023/06/08 04:53:42;;;;;;;10.60;9.00;;;;;;;16.02;83.02;97169.80;104861;1269;101358;-72
2023/06/08 04:56:18;;;;;;;9.30;8.30;;;;;;;16.04;82.79;97167.64;105029;1255;101800;-71
2023/06/08 04:58:46;;;;;;;9.10;8.10;;;;;;;16.06;82.63;97167.88;104966;1266;99705;-73
2023/06/08 05:01:15;;;;;;;10.10;9.00;;;;;;;16.07;82.76;97167.08;105086;1266;97237;-73
2023/06/08 05:03:44;;;;;;;10.90;8.50;;;;;;;16.09;82.77;97165.80;105190;1253;96544;-72
2023/06/08 05:06:12;;;;;;;10.80;8.40;;;;;;;16.13;82.63;97163.67;104988;1256;102578;-71
2023/06/08 05:08:40;;;;;;;8.40;7.60;;;;;;;16.17;82.66;97165.20;104959;1257;101557;-73
2023/06/08 05:11:09;;;;;;;8.10;7.20;;;;;;;16.23;82.71;97167.61;104735;1260;99708;-71
2023/06/08 05:13:37;;;;;;;8.70;7.80;;;;;;;16.28;82.53;97165.94;105020;1253;96637;-71
2023/06/08 05:16:05;;;;;;;8.30;7.50;;;;;;;16.32;82.46;97164.41;104961;1253;97742;-72
2023/06/08 05:18:34;;;;;;;9.80;7.30;;;;;;;16.37;82.39;97164.41;104993;1256;102732;-71
2023/06/08 05:21:02;;;;;;;8.70;7.70;;;;;;;16.41;82.35;97164.36;104998;1256;102137;-72
2023/06/08 05:23:30;;;;;;;8.00;7.00;;;;;;;16.45;82.23;97168.16;104969;1262;100440;-73
2023/06/08 05:25:58;;;;;;;7.80;6.30;;;;;;;16.50;82.21;97167.63;104955;1255;97558;-71
2023/06/08 05:28:27;;;;;;;7.90;6.60;;;;;;;16.54;81.96;97167.84;104931;1266;96963;-70
2023/06/08 05:30:55;;;;;;;7.10;6.10;;;;;;;16.56;81.70;97168.50;104986;1266;102724;-70
2023/06/08 05:33:23;;;;;;;9.00;6.30;;;;;;;16.59;81.74;97163.20;105025;1257;101880;-73
2023/06/08 05:35:51;;;;;;;7.30;5.40;;;;;;;16.63;81.74;97165.09;105317;1267;100473;-71
2023/06/08 05:38:20;;;;;;;7.60;5.40;;;;;;;16.67;81.73;97168.05;105242;1270;96547;-73
2023/06/08 05:40:48;;;;;;;7.30;6.30;;;;;;;16.70;81.39;97168.04;104973;1267;97064;-72
2023/06/08 05:43:16;;;;;;;6.90;6.20;;;;;;;16.74;81.29;97168.90;104977;1258;102877;-72
2023/06/08 05:45:45;;;;;;;6.20;5.40;;;;;;;16.76;81.16;97170.57;104981;1268;102178;-74
2023/06/08 05:48:14;;;;;;;6.20;5.60;;;;;;;16.77;81.03;97170.75;104949;1256;100208;-74
2023/06/08 05:50:42;;;;;;;7.70;6.10;;;;;;;16.78;80.89;97173.70;104789;1270;96783;-74
2023/06/08 05:53:10;;;;;;;7.20;5.20;;;;;;;16.81;80.67;97174.80;104976;1256;97451;-74
2023/06/08 05:55:41;;;;;;;7.80;5.60;;;;;;;16.83;80.49;97175.91;104974;1264;102724;-72
2023/06/08 05:58:10;;;;;;;6.70;5.60;;;;;;;16.85;80.49;97175.35;104844;1265;101838;-73
2023/06/08 06:00:38;;;;;;;5.70;5.20;;;;;;;16.88;80.27;97174.52;104971;1255;100114;-72
2023/06/08 06:03:06;;;;;;;5.80;5.20;;;;;;;16.90;80.19;97176.55;104974;1266;96534;-72
2023/06/08 06:05:35;;;;;;;6.30;5.60;;;;;;;16.96;80.33;97177.20;105002;1259;98209;-71
2023/06/08 06:08:03;;;;;;;6.80;5.30;;;;;;;17.00;80.12;97179.87;105045;1266;101851;-73
2023/06/08 06:10:31;;;;;;;5.80;5.20;;;;;;;17.04;80.06;97178.52;105121;1259;100248;-71
2023/06/08 06:12:59;;;;;;;5.00;4.60;;;;;;;17.10;79.99;97179.31;105166;1260;100518;-72
2023/06/08 06:15:27;;;;;;;6.30;5.10;;;;;;;17.16;79.88;97177.02;104920;1264;96741;-71
2023/06/08 06:17:55;;;;;;;5.70;5.10;;;;;;;17.23;79.49;97172.45;105021;1267;97012;-72
2023/06/08 06:20:27;;;;;;;6.00;4.90;;;;;;;17.31;79.58;97172.67;105009;1257;103110;-75
2023/06/08 06:22:55;;;;;;;5.70;4.60;;;;;;;17.41;79.22;97172.87;105077;1257;102509;-72
2023/06/08 06:25:23;;;;;;;5.30;4.60;;;;;;;17.50;79.11;97173.27;104907;1260;100317;-74
2023/06/08 06:27:51;;;;;;;5.50;5.00;;;;;;;17.59;78.86;97173.89;105013;1261;96573;-72
2023/06/08 06:30:19;;;;;;;5.20;4.70;;;;;;;17.64;78.77;97175.36;104991;1266;97028;-72
2023/06/08 06:32:47;;;;;;;4.90;4.40;;;;;;;17.69;78.12;97171.98;104954;1263;102423;-71
2023/06/08 06:35:15;;;;;;;4.60;4.20;;;;;;;17.75;77.77;97172.17;105020;1260;101887;-74
2023/06/08 06:37:43;;;;;;;5.20;4.40;;;;;;;17.81;77.81;97173.14;104949;1264;99661;-71
2023/06/08 06:40:12;;;;;;;4.90;4.30;;;;;;;17.90;77.31;97173.09;104961;1266;96816;-71
2023/06/08 06:42:40;;;;;;;5.70;3.80;;;;;;;17.98;76.86;97168.23;105073;1257;96653;-72
2023/06/08 06:45:11;;;;;;;3.70;3.40;;;;;;;18.09;76.30;97169.83;105166;1267;102703;-70
2023/06/08 06:47:40;;;;;;;3.90;3.60;;;;;;;18.16;75.40;97167.50;104985;1267;101883;-71
2023/06/08 06:50:09;;;;;;;4.40;4.00;;;;;;;18.21;74.71;97170.92;104923;1255;100118;-74
2023/06/08 06:52:37;;;;;;;9.90;4.00;;;;;;;18.28;74.58;97172.21;104922;1271;96782;-71
2023/06/08 07:02:28;;;;;;;5.70;4.10;;;;;;;18.53;73.70;97166.30;101966;1293;637619;-71
2023/06/08 07:11:44;;;;;;;5.50;4.20;;;;;;;18.51;72.34;97164.51;102168;1293;635932;-74
2023/06/08 07:14:13;;;;;;;6.40;4.00;;;;;;;18.50;72.17;97163.55;104576;1264;97236;-72
2023/06/08 07:16:41;;;;;;;7.80;4.20;;;;;;;18.56;72.25;97163.64;104371;1266;95839;-75
2023/06/08 07:19:10;;;;;;;4.90;4.20;;;;;;;18.61;72.02;97162.53;104230;1268;100023;-72
2023/06/08 07:21:39;;;;;;;4.60;4.00;;;;;;;18.66;72.19;97165.35;104235;1280;101691;-71
2023/06/08 07:24:08;;;;;;;5.10;4.20;;;;;;;18.72;72.20;97165.36;104942;1262;100316;-71
2023/06/08 07:26:37;;;;;;;4.70;4.30;;;;;;;18.79;72.32;97164.34;104820;1267;96790;-71
2023/06/08 07:29:05;;;;;;;5.20;4.40;;;;;;;18.85;72.16;97165.02;105250;1256;96614;-72
2023/06/08 07:31:34;;;;;;;4.70;4.10;;;;;;;18.97;72.05;97162.41;105128;1254;99880;-70
2023/06/08 07:34:02;;;;;;;4.70;4.20;;;;;;;19.15;72.02;97165.02;105165;1264;101922;-71
2023/06/08 07:36:31;;;;;;;4.90;4.50;;;;;;;19.33;71.36;97162.40;105153;1253;99115;-71
2023/06/08 07:38:59;;;;;;;5.80;4.20;;;;;;;19.44;71.08;97159.45;105417;1254;96082;-71
2023/06/08 07:41:28;;;;;;;5.70;4.30;;;;;;;19.50;70.66;97160.30;105339;1256;95800;-72
2023/06/08 07:43:56;;;;;;;5.60;4.20;;;;;;;19.52;70.33;97162.27;105414;1255;101256;-71
2023/06/08 07:46:25;;;;;;;5.10;4.50;;;;;;;19.55;69.96;97162.06;105078;1268;101929;-71
2023/06/08 07:48:53;;;;;;;4.90;4.40;;;;;;;19.60;69.60;97161.16;105047;1255;100307;-70
2023/06/08 07:51:21;;;;;;;10.20;4.50;;;;;;;19.63;68.99;97158.71;104821;1258;96094;-75
2023/06/08 07:53:50;;;;;;;5.70;4.50;;;;;;;19.66;68.96;97157.73;105065;1254;96015;-72
2023/06/08 07:56:18;;;;;;;5.00;4.30;;;;;;;19.64;68.64;97155.53;105094;1256;101813;-74
2023/06/08 07:58:46;;;;;;;5.10;4.50;;;;;;;19.69;68.64;97154.31;105137;1256;101931;-72
2023/06/08 08:01:15;;;;;;;7.20;4.80;;;;;;;19.81;68.56;97146.25;105104;1254;100856;-71
2023/06/08 08:03:43;;;;;;;4.70;4.30;;;;;;;19.92;68.13;97149.15;105197;1255;96073;-71
2023/06/08 08:06:11;;;;;;;4.90;4.40;;;;;;;20.03;67.85;97148.23;105124;1257;96613;-71
2023/06/08 08:08:39;;;;;;;5.70;4.80;;;;;;;20.07;67.87;97154.30;105327;1274;101323;-71
2023/06/08 08:11:09;;;;;;;4.90;4.40;;;;;;;20.11;67.50;97151.28;104941;1253;101165;-74
2023/06/08 08:13:37;;;;;;;5.40;4.50;;;;;;;20.14;66.84;97152.05;105195;1276;100153;-73
2023/06/08 08:16:06;;;;;;;8.00;5.40;;;;;;;20.23;67.00;97155.59;105156;1259;95819;-73
2023/06/08 08:18:34;;;;;;;6.10;5.00;;;;;;;20.37;67.24;97149.46;105178;1259;95862;-73
2023/06/08 08:21:02;;;;;;;6.30;4.50;;;;;;;20.53;67.34;97149.35;105224;1257;101882;-72
2023/06/08 08:23:30;;;;;;;5.10;4.60;;;;;;;20.69;66.35;97147.08;105099;1257;101986;-72
2023/06/08 08:25:58;;;;;;;6.60;4.90;;;;;;;20.82;66.03;97144.92;104844;1257;100421;-73
2023/06/08 08:28:26;;;;;;;8.00;4.60;;;;;;;20.97;65.95;97145.94;104976;1254;96953;-72
2023/06/08 08:30:54;;;;;;;5.10;4.60;;;;;;;21.11;65.52;97149.52;105134;1258;95866;-72
2023/06/08 08:33:24;;;;;;;6.40;4.80;;;;;;;21.22;65.15;97146.49;105068;1259;102568;-72
2023/06/08 08:35:52;;;;;;;5.60;5.00;;;;;;;21.28;64.97;97146.89;105197;1258;102133;-72
2023/06/08 08:38:20;;;;;;;5.70;4.50;;;;;;;21.27;64.72;97146.97;105186;1257;100239;-72
2023/06/08 08:40:53;;;;;;;5.90;5.30;;;;;;;21.22;64.24;97140.92;105117;1268;96669;-72
2023/06/08 08:43:52;;;;;;;5.70;5.10;;;;;;;21.21;64.26;97141.02;105187;1253;96767;-74
2023/06/08 08:46:23;;;;;;;5.40;4.90;;;;;;;21.26;64.62;97145.66;104990;1257;110842;-72
2023/06/08 08:48:53;;;;;;;6.80;6.10;;;;;;;21.39;64.70;97142.15;104977;1258;101970;-75
2023/06/08 08:51:21;;;;;;;8.80;5.90;;;;;;;21.55;64.73;97143.51;104938;1257;100184;-73
2023/06/08 08:53:52;;;;;;;6.20;5.40;;;;;;;21.67;64.51;97142.73;104954;1258;95843;-72
2023/06/08 08:56:22;;;;;;;5.20;4.40;;;;;;;21.77;63.42;97142.48;104961;1254;96803;-72
2023/06/08 08:58:52;;;;;;;6.50;4.90;;;;;;;21.79;63.14;97143.00;105165;1256;101299;-72
2023/06/08 09:01:21;;;;;;;8.20;5.70;;;;;;;21.89;63.30;97143.05;105067;1255;102150;-73
2023/06/08 09:03:50;;;;;;;7.20;6.40;;;;;;;22.12;63.77;97143.63;104844;1260;100992;-74
2023/06/08 09:06:18;;;;;;;7.10;6.10;;;;;;;22.20;63.22;97146.14;104999;1257;96780;-73
2023/06/08 09:08:49;;;;;;;6.00;5.40;;;;;;;22.26;62.85;97149.25;105140;1253;97164;-72
2023/06/08 09:11:18;;;;;;;8.40;5.70;;;;;;;22.40;62.61;97149.10;104821;1253;100003;-71
2023/06/08 09:13:46;;;;;;;8.50;5.90;;;;;;;22.44;62.59;97146.14;105123;1256;110384;-74
2023/06/08 09:16:20;;;;;;;6.70;6.00;;;;;;;22.37;61.92;97146.70;105031;1255;100111;-72
2023/06/08 09:19:05;;;;;;;7.60;6.10;;;;;;;22.37;62.23;97145.16;105168;1256;96187;-72
2023/06/08 09:21:35;;;;;;;11.50;7.20;;;;;;;22.66;63.20;97145.95;105329;1255;95829;-73
2023/06/08 09:24:08;;;;;;;7.70;6.70;;;;;;;23.04;63.07;97145.00;104943;1275;100078;-73
2023/06/08 09:26:37;;;;;;;8.70;6.90;;;;;;;23.32;62.35;97144.15;105109;1256;101773;-75
2023/06/08 09:29:06;;;;;;;7.80;6.90;;;;;;;23.41;61.61;97147.43;105292;1257;100291;-73
2023/06/08 09:31:39;;;;;;;8.80;7.10;;;;;;;23.56;61.30;97142.63;105347;1255;96109;-72
2023/06/08 09:34:10;;;;;;;8.10;6.70;;;;;;;23.65;61.01;97138.11;105205;1258;95817;-73
2023/06/08 09:36:38;;;;;;;9.00;7.20;;;;;;;23.78;61.05;97142.09;105077;1256;100975;-72
2023/06/08 09:39:09;;;;;;;8.00;7.20;;;;;;;23.99;60.89;97141.65;105007;1255;101720;-76
2023/06/08 09:41:38;;;;;;;8.70;7.80;;;;;;;24.26;60.40;97138.73;105043;1255;100371;-72
2023/06/08 09:44:32;;;;;;;8.50;7.50;;;;;;;24.59;59.89;97137.31;105035;1256;95922;-73
2023/06/08 09:47:00;;;;;;;8.00;7.20;;;;;;;24.59;58.57;97133.39;104577;1263;95954;-73
2023/06/08 09:49:28;;;;;;;8.90;7.20;;;;;;;24.41;58.41;97131.95;104486;1265;101324;-72
2023/06/08 09:51:58;;;;;;;10.70;9.20;;;;;;;24.22;58.47;97125.64;104683;1260;101956;-73
2023/06/08 09:54:27;;;;;;;9.10;8.20;;;;;;;24.00;58.58;97123.81;104720;1262;100593;-71
2023/06/08 09:56:57;;;;;;;11.10;8.70;;;;;;;23.91;59.22;97123.77;104729;1262;95965;-72
2023/06/08 09:59:42;;;;;;;10.70;9.60;;;;;;;23.88;59.09;97120.58;105031;1259;95891;-71
2023/06/08 10:02:34;;;;;;;11.60;10.30;;;;;;;23.79;58.85;97120.86;104768;1262;101595;-73
2023/06/08 10:05:10;;;;;;;11.20;10.10;;;;;;;23.70;58.91;97126.29;104541;1262;101702;-72
2023/06/08 10:07:43;;;;;;;12.30;10.20;;;;;;;23.57;58.84;97121.78;104528;1273;100520;-73
2023/06/08 10:10:16;;;;;;;12.00;10.80;;;;;;;23.45;59.20;97124.11;104778;1262;96088;-72
2023/06/08 10:12:45;;;;;;;11.70;10.50;;;;;;;23.42;59.38;97123.99;104793;1260;97018;-73
2023/06/08 10:15:14;;;;;;;13.80;11.30;;;;;;;23.40;59.42;97120.80;104847;1262;101353;-73
2023/06/08 10:17:44;;;;;;;12.80;11.50;;;;;;;23.34;59.30;97119.98;104397;1266;101961;-74
2023/06/08 10:20:16;;;;;;;13.50;11.40;;;;;;;23.31;59.27;97118.21;104598;1273;100092;-72
2023/06/08 10:22:45;;;;;;;12.60;11.30;;;;;;;23.38;59.62;97120.77;104701;1267;97532;-72
2023/06/08 10:25:16;;;;;;;13.30;11.40;;;;;;;23.66;59.82;97112.59;104951;1262;95967;-74
2023/06/08 10:27:50;;;;;;;12.80;11.50;;;;;;;23.76;59.16;97113.54;105159;1253;101579;-72
2023/06/08 10:30:29;;;;;;;13.00;11.50;;;;;;;23.68;58.66;97116.92;105199;1255;102044;-72
2023/06/08 10:33:08;;;;;;;13.60;12.20;;;;;;;23.58;58.72;97115.61;105170;1258;100469;-73
2023/06/08 10:35:37;;;;;;;15.00;13.30;;;;;;;23.51;58.71;97116.11;105190;1255;95842;-72
2023/06/08 10:38:12;;;;;;;15.60;14.00;;;;;;;23.42;58.88;97116.25;105213;1258;97060;-72
2023/06/08 10:40:51;;;;;;;14.90;12.90;;;;;;;23.35;59.13;97114.52;105383;1255;101451;-72
2023/06/08 10:43:27;;;;;;;14.20;12.40;;;;;;;23.27;59.17;97115.20;105144;1255;101909;-73
2023/06/08 10:45:55;;;;;;;12.60;11.20;;;;;;;23.30;59.51;97112.95;104768;1261;100484;-73
2023/06/08 10:48:23;;;;;;;13.30;12.00;;;;;;;23.39;59.55;97105.11;104941;1259;95947;-72
2023/06/08 10:50:52;;;;;;;13.80;12.30;;;;;;;23.50;59.64;97103.67;105036;1256;95799;-72
2023/06/08 10:53:22;;;;;;;13.60;11.90;;;;;;;23.60;59.57;97104.95;104840;1259;101319;-73
2023/06/08 10:55:53;;;;;;;13.00;11.70;;;;;;;23.60;59.00;97103.13;105132;1256;100298;-74
2023/06/08 10:58:22;;;;;;;12.20;10.50;;;;;;;23.58;58.76;97102.77;105128;1258;98867;-72
2023/06/08 11:00:52;;;;;;;12.50;10.90;;;;;;;23.57;59.00;97101.89;105124;1268;96882;-71
2023/06/08 11:03:22;;;;;;;13.20;11.90;;;;;;;23.64;59.00;97099.69;105298;1273;95849;-74
2023/06/08 11:05:53;;;;;;;11.50;10.40;;;;;;;23.75;59.22;97101.04;105355;1255;101009;-72
2023/06/08 11:08:22;;;;;;;12.60;11.40;;;;;;;23.79;58.96;97095.32;105060;1256;99996;-73
2023/06/08 11:10:55;;;;;;;12.90;11.50;;;;;;;23.90;59.04;97089.56;104651;1261;98936;-73
2023/06/08 11:13:24;;;;;;;14.00;11.60;;;;;;;24.07;58.77;97093.91;105054;1253;95941;-73
2023/06/08 11:15:52;;;;;;;13.00;11.80;;;;;;;24.18;58.46;97093.97;105004;1258;97679;-72
2023/06/08 11:18:21;;;;;;;12.40;11.20;;;;;;;24.25;58.40;97091.73;105129;1253;101390;-72
2023/06/08 11:20:49;;;;;;;11.90;10.70;;;;;;;24.25;58.15;97085.17;105241;1258;101807;-72
2023/06/08 11:23:18;;;;;;;11.60;10.50;;;;;;;24.37;58.45;97080.77;105226;1256;100523;-73
2023/06/08 11:25:48;;;;;;;12.00;10.50;;;;;;;24.66;58.48;97076.29;105010;1253;97058;-72
2023/06/08 11:28:16;;;;;;;13.20;10.30;;;;;;;24.98;58.36;97070.20;105064;1256;98144;-72
2023/06/08 11:30:44;;;;;;;11.40;10.20;;;;;;;25.28;57.92;97065.84;105018;1255;102002;-73
2023/06/08 11:33:17;;;;;;;11.50;10.40;;;;;;;25.53;57.21;97065.88;105028;1268;101851;-73
2023/06/08 11:35:45;;;;;;;12.90;10.70;;;;;;;25.73;56.71;97068.70;104863;1258;100601;-75
2023/06/08 11:38:13;;;;;;;11.50;10.40;;;;;;;25.94;55.78;97067.36;105320;1255;96693;-75